createdAt,value
2022-09-04T00:04:17.934Z,54.78
2022-09-04T00:09:34.142Z,54.31
2022-09-04T00:14:41.696Z,54.03
2022-09-04T00:20:03.048Z,54.16
2022-09-04T00:25:37.106Z,54.29
2022-09-04T00:30:46.418Z,54.24
2022-09-04T00:35:58.293Z,54.37
2022-09-04T00:41:32.712Z,53.99
2022-09-04T00:46:38.084Z,54.14
2022-09-04T00:52:10.983Z,53.67
2022-09-04T00:57:21.667Z,54.11
2022-09-04T01:02:53.386Z,54.52
2022-09-04T01:08:16.807Z,55.16
2022-09-04T01:13:33.966Z,54.84
2022-09-04T01:18:48.191Z,54.76
2022-09-04T01:24:26.897Z,54.65
2022-09-04T01:29:43.373Z,55.02
2022-09-04T01:35:01.964Z,55.60
2022-09-04T01:40:35.484Z,56.15
2022-09-04T01:46:15.967Z,56.77
2022-09-04T01:51:42.931Z,57.71
2022-09-04T01:56:54.538Z,58.36
2022-09-04T02:02:25.990Z,57.91
2022-09-04T02:07:54.928Z,58.74
2022-09-04T02:13:13.454Z,58.48
2022-09-04T02:18:22.590Z,59.37
2022-09-04T02:23:35.265Z,60.10
2022-09-04T02:28:42.846Z,60.30
2022-09-04T02:34:13.134Z,60.54
2022-09-04T02:39:43.939Z,61.12
2022-09-04T02:45:07.174Z,61.28
2022-09-04T02:50:26.342Z,61.58
2022-09-04T02:55:44.519Z,62.11
2022-09-04T03:01:05.083Z,62.57
2022-09-04T03:06:14.455Z,62.72
2022-09-04T03:11:15.983Z,63.02
2022-09-04T03:16:34.125Z,63.19
2022-09-04T03:21:46.140Z,63.47
2022-09-04T03:27:02.671Z,63.76
2022-09-04T03:32:16.389Z,63.82
2022-09-04T03:37:38.155Z,64.25
2022-09-04T03:42:48.623Z,64.97
2022-09-04T03:48:06.978Z,65.09
2022-09-04T03:53:20.928Z,65.40
2022-09-04T03:58:42.982Z,64.96
2022-09-04T04:03:50.364Z,65.39
2022-09-04T04:09:14.947Z,65.82
2022-09-04T04:14:54.491Z,65.53
2022-09-04T04:20:07.549Z,65.06
2022-09-04T04:25:29.702Z,65.21
2022-09-04T04:30:48.070Z,65.17
2022-09-04T04:36:17.595Z,64.93
2022-09-04T04:42:03.302Z,64.83
2022-09-04T04:47:27.385Z,65.30
2022-09-04T04:52:44.666Z,64.87
2022-09-04T04:57:53.426Z,65.42
2022-09-04T05:03:20.078Z,65.68
2022-09-04T05:08:55.755Z,66.29
2022-09-04T05:14:02.570Z,66.32
2022-09-04T05:19:23.268Z,66.20
2022-09-04T05:24:32.447Z,65.98
2022-09-04T05:29:57.044Z,66.79
2022-09-04T05:35:13.697Z,67.05
2022-09-04T05:40:23.495Z,67.62
2022-09-04T05:45:46.953Z,67.02
2022-09-04T05:51:25.017Z,67.64
2022-09-04T05:56:45.178Z,67.88
2022-09-04T06:02:05.313Z,67.97
2022-09-04T06:07:18.969Z,68.28
2022-09-04T06:12:45.123Z,68.39
2022-09-04T06:17:52.751Z,68.52
2022-09-04T06:23:23.068Z,68.96
2022-09-04T06:29:05.461Z,69.25
2022-09-04T06:34:34.747Z,69.32
2022-09-04T06:40:14.001Z,69.54
2022-09-04T06:45:30.143Z,69.58
2022-09-04T06:50:49.824Z,69.40
2022-09-04T06:56:09.932Z,69.28
2022-09-04T07:01:49.164Z,69.63
2022-09-04T07:06:52.891Z,69.98
2022-09-04T07:12:14.361Z,69.99
2022-09-04T07:17:42.640Z,70.93
2022-09-04T07:22:56.803Z,71.04
2022-09-04T07:28:01.732Z,71.76
2022-09-04T07:33:14.039Z,71.42
2022-09-04T07:38:25.075Z,71.54
2022-09-04T07:43:54.646Z,71.46
2022-09-04T07:49:12.942Z,70.80
2022-09-04T07:54:53.152Z,70.67
2022-09-04T07:59:54.803Z,70.33
2022-09-04T08:05:11.915Z,70.23
2022-09-04T08:10:51.427Z,69.84
2022-09-04T08:16:11.808Z,69.71
2022-09-04T08:21:31.367Z,69.99
2022-09-04T08:26:36.099Z,69.38
2022-09-04T08:31:42.952Z,69.85
2022-09-04T08:37:04.325Z,68.88
2022-09-04T08:42:43.834Z,67.49
2022-09-04T08:48:03.907Z,66.85
2022-09-04T08:53:15.565Z,66.35
2022-09-04T08:58:49.800Z,65.66
2022-09-04T09:04:15.352Z,66.08
2022-09-04T09:09:39.318Z,65.28
2022-09-04T09:15:05.801Z,65.28
2022-09-04T09:20:28.555Z,64.39
2022-09-04T09:25:44.081Z,64.20
2022-09-04T09:31:07.135Z,63.75
2022-09-04T09:36:26.876Z,63.07
2022-09-04T09:41:47.338Z,62.56
2022-09-04T09:47:07.899Z,61.67
2022-09-04T09:52:47.784Z,61.75
2022-09-04T09:58:28.544Z,60.96
2022-09-04T10:03:39.255Z,60.22
2022-09-04T10:09:04.967Z,59.74
2022-09-04T10:14:39.484Z,59.66
2022-09-04T10:20:09.803Z,57.64
2022-09-04T10:25:35.235Z,58.92
2022-09-04T10:30:55.416Z,57.79
2022-09-04T10:36:21.950Z,57.81
2022-09-04T10:41:34.940Z,56.79
2022-09-04T10:47:08.172Z,56.88
2022-09-04T10:52:40.033Z,57.57
2022-09-04T10:57:50.631Z,57.73
2022-09-04T11:03:21.255Z,57.22
2022-09-04T11:08:43.099Z,55.42
2022-09-04T11:14:07.756Z,54.97
2022-09-04T11:19:47.179Z,59.52
2022-09-04T11:25:01.819Z,61.03
2022-09-04T11:30:33.209Z,60.15
2022-09-04T11:36:07.797Z,59.84
2022-09-04T11:41:25.035Z,60.52
2022-09-04T11:46:47.538Z,59.05
2022-09-04T11:52:13.927Z,60.40
2022-09-04T11:57:51.608Z,59.27
2022-09-04T12:03:35.308Z,58.82
2022-09-04T12:09:10.887Z,57.60
2022-09-04T12:14:56.430Z,57.66
2022-09-04T12:20:24.318Z,57.77
2022-09-04T12:25:46.290Z,56.33
2022-09-04T12:30:57.462Z,57.14
2022-09-04T12:36:23.987Z,56.61
2022-09-04T12:41:58.302Z,56.27
2022-09-04T12:47:19.787Z,57.21
2022-09-04T12:52:47.964Z,56.15
2022-09-04T12:58:02.776Z,57.26
2022-09-04T13:03:29.728Z,56.46
2022-09-04T13:08:37.442Z,57.11
2022-09-04T13:14:00.138Z,57.95
2022-09-04T13:19:02.267Z,57.49
2022-09-04T13:24:12.106Z,57.84
2022-09-04T13:29:25.937Z,57.43
2022-09-04T13:35:02.185Z,56.94
2022-09-04T13:40:20.924Z,57.46
2022-09-04T13:45:33.012Z,57.27
2022-09-04T13:50:42.627Z,57.67
2022-09-04T13:55:54.502Z,57.25
2022-09-04T14:01:03.024Z,56.81
2022-09-04T14:06:10.384Z,56.94
2022-09-04T14:11:20.819Z,57.31
2022-09-04T14:16:25.789Z,56.80
2022-09-04T14:21:49.157Z,57.49
2022-09-04T14:27:12.367Z,57.03
2022-09-04T14:32:57.808Z,55.97
2022-09-04T14:38:19.284Z,56.82
2022-09-04T14:43:40.276Z,57.19
2022-09-04T14:49:01.119Z,57.26
2022-09-04T14:54:04.151Z,56.47
2022-09-04T14:59:17.320Z,57.11
2022-09-04T15:04:27.197Z,57.73
2022-09-04T15:09:35.189Z,57.98
2022-09-04T15:14:40.658Z,56.43
2022-09-04T15:19:56.640Z,56.65
2022-09-04T15:25:57.690Z,55.18
2022-09-04T15:31:37.001Z,55.64
2022-09-04T15:36:39.489Z,55.63
2022-09-04T15:41:50.206Z,56.53
2022-09-04T15:47:36.654Z,56.03
2022-09-04T15:53:14.146Z,55.19
2022-09-04T15:58:19.883Z,56.75
2022-09-04T16:03:42.034Z,56.62
2022-09-04T16:08:56.965Z,55.63
2022-09-04T16:14:17.721Z,56.40
2022-09-04T16:20:03.798Z,55.93
2022-09-04T16:25:33.036Z,55.30
2022-09-04T16:30:35.832Z,56.30
2022-09-04T16:35:43.149Z,56.74
2022-09-04T16:41:04.476Z,56.32
2022-09-04T16:46:09.938Z,57.23
2022-09-04T16:51:40.002Z,58.00
2022-09-04T16:57:12.322Z,57.86
2022-09-04T17:02:28.025Z,58.84
2022-09-04T17:07:43.184Z,59.02
2022-09-04T17:12:58.618Z,58.24
2022-09-04T17:18:09.612Z,58.64
2022-09-04T17:29:02.089Z,58.84
2022-09-04T17:40:44.118Z,59.06
2022-09-04T17:46:36.857Z,58.73
2022-09-04T17:51:40.789Z,59.67
2022-09-04T17:57:32.436Z,59.16
2022-09-04T18:02:44.618Z,59.95
2022-09-04T18:08:09.697Z,60.71
2022-09-04T18:13:45.832Z,61.34
2022-09-04T18:18:59.475Z,61.99
2022-09-04T18:24:12.603Z,63.26
2022-09-04T18:31:15.906Z,63.67
2022-09-04T18:37:41.426Z,63.82
2022-09-04T18:46:15.124Z,64.50
2022-09-04T18:50:40.371Z,64.90
2022-09-04T18:51:52.916Z,65.13
2022-09-04T18:57:06.761Z,65.59
2022-09-04T19:02:21.783Z,65.92
2022-09-04T19:07:32.988Z,65.90
2022-09-04T19:12:51.697Z,66.51
2022-09-04T19:18:00.858Z,66.82
2022-09-04T19:23:15.507Z,67.28
2022-09-04T19:28:27.437Z,67.32
2022-09-04T19:33:48.117Z,67.75
2022-09-04T19:45:55.903Z,67.92
2022-09-04T19:46:25.787Z,68.36
2022-09-04T19:53:19.867Z,68.84
2022-09-04T19:55:24.821Z,68.76
2022-09-04T20:00:42.716Z,69.05
2022-09-04T20:06:07.659Z,69.35
2022-09-04T20:11:36.559Z,69.63
2022-09-04T20:16:48.434Z,69.78
2022-09-04T20:22:01.357Z,70.00
2022-09-04T20:27:31.193Z,70.57
2022-09-04T20:32:53.953Z,70.22
2022-09-04T20:38:22.846Z,70.49
2022-09-04T20:44:03.571Z,70.44
2022-09-04T20:52:52.612Z,70.67
2022-09-04T20:54:56.027Z,70.51
2022-09-04T21:03:20.724Z,70.22
2022-09-04T21:06:10.446Z,69.76
2022-09-04T21:11:39.192Z,69.58
2022-09-04T21:17:34.118Z,69.38
2022-09-04T21:23:05.562Z,69.28
2022-09-04T21:28:55.999Z,69.72
2022-09-04T21:34:43.193Z,70.05
2022-09-04T21:40:19.592Z,70.58
2022-09-04T21:45:55.647Z,70.64
2022-09-04T21:51:00.160Z,70.96
2022-09-04T21:57:14.934Z,71.22
2022-09-04T22:02:45.891Z,70.94
2022-09-04T22:09:38.384Z,71.11
2022-09-04T22:13:42.342Z,71.44
2022-09-04T22:19:29.852Z,71.56
2022-09-04T22:24:32.313Z,71.23
2022-09-04T22:29:55.577Z,71.05
2022-09-04T22:35:17.109Z,70.98
2022-09-04T22:40:32.976Z,71.20
2022-09-04T22:46:08.707Z,71.36
2022-09-04T22:51:48.233Z,71.47
2022-09-04T22:56:59.322Z,71.14
2022-09-04T23:03:09.674Z,70.96
2022-09-04T23:13:42.280Z,70.61
2022-09-04T23:14:05.335Z,70.27
2022-09-04T23:26:32.481Z,70.35
2022-09-04T23:26:58.571Z,69.12
2022-09-04T23:30:42.585Z,67.97
2022-09-04T23:36:01.863Z,67.64
2022-09-04T23:41:34.502Z,66.40
2022-09-04T23:47:04.011Z,65.43
2022-09-04T23:52:48.830Z,66.11
2022-09-04T23:58:47.226Z,66.30
